EGPD/ABZ METAR and TAF weather

Enter ICAO airport designator
Station Type Date Time Source
EGPD METAR 2020/01/21 21:20 UTC NOAA

EGPD 212120Z AUTO 14003KT 5000 BR FEW002 SCT019 BKN023 07/07 Q1035 NOSIG


Station Type Date Time Source
EGPD Decoded METAR 2020/01/21 21:20 UTC NOAA

Aberdeen / Dyce, United Kingdom (EGPD) 57-12N 002-13W 0M
Jan 21, 2020 - 04:20 PM EST / 2020.01.21 2120 UTC
Wind: from the SE (140 degrees) at 3 MPH (3 KT):0
Visibility: 3 mile(s):0
Sky conditions: mostly cloudy
Weather: mist
Temperature: 44 F (7 C)
Dew Point: 44 F (7 C)
Relative Humidity: 100%
Pressure (altimeter): 30.56 in. Hg (1035 hPa)
ob: EGPD 212120Z AUTO 14003KT 5000 BR FEW002 SCT019 BKN023 07/07 Q1035 NOSIG
cycle: 21

Station Type Date Time Source
EGPD TAF 2020/01/21 19:39 UTC NOAA

TAF
AMD EGPD 211934Z 2119/2218 16005KT 2000 DZRA BKN003
BECMG 2119/2121 9999 NSW SCT020 PROB40
TEMPO 2119/2121 1200 BR BKN002
TEMPO 2121/2209 4000 RADZ BKN008 PROB40
TEMPO 2203/2208 BKN005

Example: see airport list